Time;durP1;ratioP1;P1;durP2;ratioP2;P2;SDS_P1;SDS_P2;PMS_P1;PMS_P2;Temp;Humidity;BMP_temperature;BMP_pressure;BME280_temperature;BME280_humidity;BME280_pressure;Samples;Min_cycle;Max_cycle;Signal;HPM_P1;HPM_P2
2022/05/26 00:01:06;;;;;;;1999.90;999.90;;;16.20;97.90;;;;;;5038895;23;20500;-69
2022/05/26 00:03:35;;;;;;;1999.90;999.90;;;16.10;98.00;;;;;;5016729;28;20491;-68
2022/05/26 00:06:05;;;;;;;1999.90;999.90;;;16.10;97.90;;;;;;5014987;28;20464;-68
2022/05/26 00:08:32;;;;;;;1999.90;999.90;;;16.00;98.10;;;;;;5008326;28;20479;-68
2022/05/26 00:10:59;;;;;;;1999.90;999.90;;;16.10;98.20;;;;;;5011138;28;20919;-67
2022/05/26 00:13:26;;;;;;;1999.90;999.90;;;16.10;98.20;;;;;;5014022;28;20546;-68
2022/05/26 00:15:53;;;;;;;1999.90;999.90;;;16.10;98.30;;;;;;5012933;28;20948;-68
2022/05/26 00:18:20;;;;;;;1999.90;999.90;;;16.10;98.30;;;;;;5014089;28;20543;-68
2022/05/26 00:20:48;;;;;;;1999.90;999.90;;;16.10;98.50;;;;;;5015110;28;20507;-68
2022/05/26 00:23:15;;;;;;;1999.90;999.90;;;16.00;98.60;;;;;;5014326;28;20483;-68
2022/05/26 00:25:42;;;;;;;1999.90;999.90;;;16.00;98.80;;;;;;5010992;28;21231;-68
2022/05/26 00:28:09;;;;;;;1999.90;999.90;;;16.00;99.00;;;;;;5016313;28;20472;-68
2022/05/26 00:30:37;;;;;;;1999.90;999.90;;;16.00;99.00;;;;;;5014156;28;21198;-68
2022/05/26 00:33:05;;;;;;;1999.90;999.90;;;16.00;99.10;;;;;;5014276;28;20493;-68
2022/05/26 00:35:34;;;;;;;1999.90;999.90;;;15.90;99.30;;;;;;5015545;28;20471;-69
2022/05/26 00:38:03;;;;;;;1999.90;999.90;;;15.90;99.60;;;;;;5016092;28;20467;-68
2022/05/26 00:40:30;;;;;;;1999.90;999.90;;;15.80;99.70;;;;;;5014288;28;20549;-68
2022/05/26 00:42:57;;;;;;;1999.90;999.90;;;15.90;99.90;;;;;;5007196;28;20531;-68
2022/05/26 00:45:24;;;;;;;1999.90;999.90;;;16.00;99.90;;;;;;5008212;28;20511;-68
2022/05/26 00:47:52;;;;;;;1999.90;999.90;;;15.90;99.90;;;;;;5013116;28;20480;-68
2022/05/26 00:50:22;;;;;;;1999.90;999.90;;;15.90;99.90;;;;;;5013932;28;20537;-68
2022/05/26 00:52:53;;;;;;;1999.90;999.90;;;15.90;99.90;;;;;;5018232;28;20479;-67
2022/05/26 00:55:24;;;;;;;1999.90;999.90;;;15.80;99.90;;;;;;5011707;28;20521;-67
2022/05/26 00:57:54;;;;;;;1999.90;999.90;;;15.80;99.90;;;;;;5001127;28;20510;-67
2022/05/26 01:00:22;;;;;;;1999.90;999.90;;;15.80;99.90;;;;;;5000532;28;20542;-69
2022/05/26 01:02:57;;;;;;;1999.90;999.90;;;15.90;99.90;;;;;;5006122;28;20460;-68
2022/05/26 01:05:28;;;;;;;1999.90;999.90;;;15.90;99.90;;;;;;5011862;28;20522;-68
2022/05/26 01:07:58;;;;;;;1999.90;999.90;;;15.90;99.90;;;;;;5016617;28;20463;-68
2022/05/26 01:10:25;;;;;;;1999.90;999.90;;;15.90;99.90;;;;;;5014635;28;20495;-68
2022/05/26 01:12:52;;;;;;;1999.90;999.90;;;15.80;99.90;;;;;;5012237;28;20565;-68
2022/05/26 01:15:22;;;;;;;1999.90;999.90;;;15.90;99.90;;;;;;5014335;28;20468;-68
2022/05/26 01:17:58;;;;;;;1999.90;999.90;;;15.90;99.90;;;;;;5017298;28;20462;-68
2022/05/26 01:20:34;;;;;;;1999.90;999.90;;;15.90;99.90;;;;;;5010066;28;20479;-67
2022/05/26 01:23:36;;;;;;;1999.90;999.90;;;15.90;99.90;;;;;;5007067;28;20454;-68
2022/05/26 01:26:27;;;;;;;1999.90;999.90;;;15.90;99.90;;;;;;5011579;28;20454;-69
2022/05/26 01:29:22;;;;;;;1999.90;999.90;;;15.80;99.90;;;;;;5007932;28;20459;-68
2022/05/26 01:31:56;;;;;;;1999.90;999.90;;;15.80;99.90;;;;;;5011067;28;20484;-68
2022/05/26 01:34:31;;;;;;;1999.90;999.90;;;15.80;99.90;;;;;;5013527;28;20589;-69
2022/05/26 01:37:06;;;;;;;1999.90;999.90;;;15.70;99.90;;;;;;5013754;28;20536;-68
2022/05/26 01:39:41;;;;;;;1999.90;999.90;;;15.70;99.90;;;;;;5006853;28;20545;-68
2022/05/26 01:42:20;;;;;;;1999.90;999.90;;;15.70;99.90;;;;;;5008807;28;20467;-69
2022/05/26 01:44:54;;;;;;;1999.90;999.90;;;15.60;99.90;;;;;;5014494;28;20454;-69
2022/05/26 01:47:37;;;;;;;1999.90;999.90;;;15.60;99.90;;;;;;5012222;28;20515;-70
2022/05/26 01:50:12;;;;;;;1999.90;999.90;;;15.70;99.90;;;;;;5011668;28;20529;-71
2022/05/26 01:52:46;;;;;;;1999.90;999.90;;;15.70;99.90;;;;;;5012447;28;20464;-71
2022/05/26 01:55:22;;;;;;;1999.90;999.90;;;15.70;99.90;;;;;;5009074;28;20556;-71
2022/05/26 01:57:55;;;;;;;1999.90;999.90;;;15.80;99.90;;;;;;5005283;28;20982;-70
2022/05/26 02:00:22;;;;;;;1999.90;999.90;;;15.80;99.90;;;;;;5017924;28;20499;-71
2022/05/26 02:02:55;;;;;;;1999.90;999.90;;;15.90;99.90;;;;;;5003346;28;20463;-70
2022/05/26 02:05:24;;;;;;;1999.90;999.90;;;15.70;99.90;;;;;;5006461;28;20463;-68
2022/05/26 02:07:55;;;;;;;1999.90;999.90;;;15.80;99.90;;;;;;5009607;28;20456;-68
2022/05/26 02:10:25;;;;;;;1999.90;999.90;;;15.80;99.90;;;;;;5017177;28;20488;-68
2022/05/26 02:12:55;;;;;;;1999.90;999.90;;;15.80;99.90;;;;;;5017119;28;20470;-68
2022/05/26 02:15:29;;;;;;;1999.90;999.90;;;15.80;99.90;;;;;;5015580;28;21015;-69
2022/05/26 02:18:02;;;;;;;1999.90;999.90;;;15.90;99.90;;;;;;5013446;28;21044;-68
2022/05/26 02:20:35;;;;;;;1999.90;999.90;;;15.90;99.90;;;;;;5019073;28;20545;-68
2022/05/26 02:23:09;;;;;;;1999.90;999.90;;;15.80;99.90;;;;;;5018174;28;20459;-68
2022/05/26 02:25:36;;;;;;;1999.90;999.90;;;15.70;99.90;;;;;;5013787;28;20459;-68
2022/05/26 02:28:04;;;;;;;1999.90;999.90;;;15.70;99.90;;;;;;5013896;28;20512;-68
2022/05/26 02:30:34;;;;;;;1999.90;999.90;;;15.60;99.90;;;;;;5013930;28;20490;-68
2022/05/26 02:33:05;;;;;;;1999.90;999.90;;;15.60;99.90;;;;;;5017918;28;20482;-68
2022/05/26 02:35:33;;;;;;;1999.90;999.90;;;15.60;99.90;;;;;;5019674;28;20546;-68
2022/05/26 02:38:02;;;;;;;1999.90;999.90;;;15.50;99.90;;;;;;5017420;28;20531;-68
2022/05/26 02:40:29;;;;;;;1999.90;999.90;;;15.50;99.90;;;;;;5018398;28;20542;-68
2022/05/26 02:42:58;;;;;;;1999.90;999.90;;;15.60;99.90;;;;;;5020113;28;20517;-68
2022/05/26 02:45:35;;;;;;;1999.90;999.90;;;15.60;99.90;;;;;;5008442;28;20991;-68
2022/05/26 02:48:13;;;;;;;1999.90;999.90;;;15.70;99.90;;;;;;5014979;28;20872;-68
2022/05/26 02:50:48;;;;;;;1999.90;999.90;;;15.80;99.90;;;;;;5017811;28;20484;-68
2022/05/26 02:53:20;;;;;;;1999.90;999.90;;;15.70;99.90;;;;;;5008657;28;20541;-68
2022/05/26 02:55:58;;;;;;;1999.90;999.90;;;15.60;99.90;;;;;;5021574;28;20481;-68
2022/05/26 02:58:33;;;;;;;1999.90;999.90;;;15.60;99.90;;;;;;5018821;28;20514;-68
2022/05/26 03:01:07;;;;;;;1999.90;999.90;;;15.60;99.90;;;;;;5014985;28;20490;-68
2022/05/26 03:03:38;;;;;;;1999.90;999.90;;;15.60;99.90;;;;;;5015588;28;20452;-68
2022/05/26 03:06:09;;;;;;;1999.90;999.90;;;15.50;99.90;;;;;;5010487;28;20460;-67
2022/05/26 03:08:39;;;;;;;1999.90;999.90;;;15.60;99.90;;;;;;5003623;28;20551;-68
2022/05/26 03:11:09;;;;;;;1999.90;999.90;;;15.60;99.90;;;;;;5001665;28;20976;-68
2022/05/26 03:13:36;;;;;;;1999.90;999.90;;;15.50;99.90;;;;;;5008699;28;20491;-68
2022/05/26 03:16:02;;;;;;;1999.90;999.90;;;15.50;99.90;;;;;;5015585;28;20467;-71
2022/05/26 03:18:30;;;;;;;1999.90;999.90;;;15.50;99.90;;;;;;5015274;28;20526;-71
2022/05/26 03:21:00;;;;;;;1999.90;999.90;;;15.50;99.90;;;;;;5014253;28;20488;-71
2022/05/26 03:23:27;;;;;;;1999.90;999.90;;;15.60;99.90;;;;;;5016945;28;20462;-71
2022/05/26 03:25:55;;;;;;;1999.90;999.90;;;15.60;99.90;;;;;;5017788;28;20954;-67
2022/05/26 03:28:22;;;;;;;1999.90;999.90;;;15.50;99.90;;;;;;5017427;28;20465;-68
2022/05/26 03:30:49;;;;;;;1999.90;999.90;;;15.50;99.90;;;;;;5015913;28;20480;-67
2022/05/26 03:33:15;;;;;;;1999.90;999.90;;;15.50;99.90;;;;;;5007431;28;20484;-68
2022/05/26 03:41:12;;;;;;;1999.90;999.90;;;15.40;99.90;;;;;;5015884;28;21262;-68
2022/05/26 03:43:43;;;;;;;1999.90;999.90;;;15.50;99.90;;;;;;5020122;28;21121;-68
2022/05/26 03:46:11;;;;;;;1999.90;999.90;;;15.60;99.90;;;;;;5015929;28;20694;-68
2022/05/26 03:48:38;;;;;;;1999.90;999.90;;;15.50;99.90;;;;;;5016553;28;20479;-68
2022/05/26 03:51:05;;;;;;;1999.90;999.90;;;15.70;99.90;;;;;;5028907;28;20475;-69
2022/05/26 03:53:34;;;;;;;1999.90;999.90;;;15.70;99.90;;;;;;5022185;28;20519;-69
2022/05/26 03:56:01;;;;;;;1999.90;999.90;;;15.80;99.90;;;;;;5006668;28;20467;-68
2022/05/26 03:58:27;;;;;;;1999.90;999.90;;;15.90;99.90;;;;;;5018062;28;20469;-68
2022/05/26 04:00:54;;;;;;;1999.90;999.90;;;15.80;99.90;;;;;;5018118;28;20544;-68
2022/05/26 04:03:21;;;;;;;1999.90;999.90;;;15.90;99.90;;;;;;5015863;28;20467;-68
2022/05/26 04:05:47;;;;;;;1999.90;999.90;;;15.90;99.90;;;;;;5017389;28;20468;-68
2022/05/26 04:08:14;;;;;;;1999.90;999.90;;;16.00;99.90;;;;;;5015468;28;20460;-69
2022/05/26 04:10:42;;;;;;;1999.90;999.90;;;15.90;99.90;;;;;;5016377;28;20854;-68
2022/05/26 04:13:09;;;;;;;1999.90;999.90;;;15.80;99.90;;;;;;5003117;28;21085;-69
2022/05/26 04:15:36;;;;;;;1999.90;999.90;;;15.90;99.90;;;;;;5005896;28;20543;-68
2022/05/26 04:18:03;;;;;;;1999.90;999.90;;;15.80;99.90;;;;;;5001563;28;20460;-69
2022/05/26 04:20:30;;;;;;;1999.90;999.90;;;15.90;99.90;;;;;;5010080;28;20483;-68
2022/05/26 04:22:56;;;;;;;1999.90;999.90;;;15.90;99.90;;;;;;5014782;28;20459;-68
2022/05/26 04:25:25;;;;;;;1999.90;999.90;;;15.90;99.90;;;;;;5015284;28;20488;-68
2022/05/26 04:27:54;;;;;;;1999.90;999.90;;;15.90;99.90;;;;;;5014921;28;20460;-67
2022/05/26 04:30:21;;;;;;;1999.90;999.90;;;15.90;99.90;;;;;;5016275;28;20856;-68
2022/05/26 04:32:48;;;;;;;1999.90;999.90;;;15.80;99.90;;;;;;5020073;28;21021;-69
2022/05/26 04:35:15;;;;;;;1999.90;999.90;;;15.80;99.90;;;;;;5015497;28;20492;-68
2022/05/26 04:37:42;;;;;;;1999.90;999.90;;;15.90;99.90;;;;;;5013540;28;20460;-68
2022/05/26 04:40:11;;;;;;;1999.90;999.90;;;15.90;99.90;;;;;;5012023;28;20491;-68
2022/05/26 04:42:39;;;;;;;1999.90;999.90;;;15.90;99.90;;;;;;5019493;28;21022;-69
2022/05/26 04:45:10;;;;;;;1999.90;999.90;;;15.90;99.90;;;;;;5012808;28;20543;-68
2022/05/26 04:47:37;;;;;;;1999.90;999.90;;;15.80;99.90;;;;;;5012722;28;20523;-69
2022/05/26 04:50:04;;;;;;;1999.90;999.90;;;15.90;99.90;;;;;;5013987;28;20485;-68
2022/05/26 04:52:31;;;;;;;1999.90;999.90;;;15.90;99.90;;;;;;5011119;28;20464;-68
2022/05/26 04:54:58;;;;;;;1999.90;999.90;;;15.90;99.90;;;;;;5017926;28;20490;-68
2022/05/26 04:57:25;;;;;;;1999.90;999.90;;;15.80;99.90;;;;;;5008660;28;20472;-68
2022/05/26 04:59:52;;;;;;;1999.90;999.90;;;15.80;99.90;;;;;;5015870;28;20479;-67
2022/05/26 05:02:22;;;;;;;1999.90;999.90;;;15.90;99.90;;;;;;5011656;28;20460;-68
2022/05/26 05:04:50;;;;;;;1999.90;999.90;;;15.80;99.90;;;;;;5020192;28;21025;-66
2022/05/26 05:07:17;;;;;;;1999.90;999.90;;;15.90;99.90;;;;;;5014967;28;20464;-68
2022/05/26 05:09:45;;;;;;;1999.90;999.90;;;16.00;99.90;;;;;;5020197;28;20901;-68
2022/05/26 05:12:13;;;;;;;1999.90;999.90;;;16.10;99.90;;;;;;5009976;28;20964;-68
2022/05/26 05:14:42;;;;;;;1999.90;999.90;;;16.20;99.90;;;;;;5016051;28;20566;-68
2022/05/26 05:17:09;;;;;;;1999.90;999.90;;;16.20;99.90;;;;;;5014309;28;20491;-68
2022/05/26 05:19:38;;;;;;;1999.90;999.90;;;16.30;99.90;;;;;;5011859;28;20522;-68
2022/05/26 05:22:09;;;;;;;1999.90;999.90;;;16.30;99.90;;;;;;5002794;28;20456;-68
2022/05/26 05:24:42;;;;;;;1999.90;999.90;;;16.30;99.90;;;;;;5010542;28;20514;-69
2022/05/26 05:27:14;;;;;;;1999.90;999.90;;;16.30;99.90;;;;;;5015252;28;20464;-68
2022/05/26 05:29:42;;;;;;;1999.90;999.90;;;16.30;99.90;;;;;;5018701;28;20509;-69
2022/05/26 05:32:15;;;;;;;1999.90;999.90;;;16.30;99.90;;;;;;5015559;28;20474;-68
2022/05/26 05:34:47;;;;;;;1999.90;999.90;;;16.50;99.90;;;;;;5017236;28;20490;-69
2022/05/26 05:37:13;;;;;;;1999.90;999.90;;;16.50;99.90;;;;;;5014929;28;20543;-68
2022/05/26 05:39:40;;;;;;;1999.90;999.90;;;16.60;99.90;;;;;;5023685;28;20463;-68
2022/05/26 05:42:08;;;;;;;1999.90;999.90;;;16.50;99.90;;;;;;5011765;28;20464;-67
2022/05/26 05:44:35;;;;;;;1999.90;999.90;;;16.50;99.90;;;;;;5017340;28;20468;-68
2022/05/26 05:47:02;;;;;;;1999.90;999.90;;;16.50;99.90;;;;;;5021508;28;20463;-68
2022/05/26 05:49:30;;;;;;;1999.90;999.90;;;16.60;99.90;;;;;;5020200;28;20472;-69
2022/05/26 05:52:06;;;;;;;1999.90;999.90;;;16.70;99.90;;;;;;5021297;28;20463;-68
2022/05/26 05:54:33;;;;;;;1999.90;999.90;;;16.80;99.90;;;;;;5016739;28;20487;-68
2022/05/26 05:56:59;;;;;;;1999.90;999.90;;;16.90;99.90;;;;;;5021949;28;20466;-69
2022/05/26 05:59:26;;;;;;;1999.90;999.90;;;17.00;99.90;;;;;;5020566;28;20527;-68
2022/05/26 06:01:54;;;;;;;1999.90;999.90;;;16.90;99.90;;;;;;5012460;28;21017;-67
2022/05/26 06:04:20;;;;;;;1999.90;999.90;;;16.90;99.90;;;;;;5009520;28;20457;-67
2022/05/26 06:06:47;;;;;;;1999.90;999.90;;;16.80;99.90;;;;;;5008079;28;20468;-68
2022/05/26 06:09:16;;;;;;;1999.90;999.90;;;16.80;99.90;;;;;;5013081;28;20582;-71
2022/05/26 06:11:43;;;;;;;1999.90;999.90;;;16.90;99.90;;;;;;5008019;28;21146;-68
2022/05/26 06:14:10;;;;;;;1999.90;999.90;;;16.90;99.90;;;;;;5017942;28;20508;-68
2022/05/26 06:16:37;;;;;;;1999.90;999.90;;;16.80;99.90;;;;;;5019146;28;20464;-68
2022/05/26 06:19:04;;;;;;;1999.90;999.90;;;16.70;99.90;;;;;;5020313;28;20954;-68
2022/05/26 06:21:31;;;;;;;1999.90;999.90;;;16.80;99.90;;;;;;5018448;28;21108;-67
2022/05/26 06:23:58;;;;;;;1999.90;999.90;;;17.00;99.90;;;;;;5014811;28;20469;-67
2022/05/26 06:26:26;;;;;;;1999.90;999.90;;;16.90;99.90;;;;;;5011915;28;20464;-68
2022/05/26 06:31:38;;;;;;;1999.90;999.90;;;17.00;99.90;;;;;;5016786;28;20474;-69
2022/05/26 06:39:34;;;;;;;1999.90;999.90;;;16.80;99.90;;;;;;5016585;28;20555;-70
2022/05/26 06:42:09;;;;;;;1999.90;999.90;;;16.60;99.90;;;;;;5019667;28;20955;-71
2022/05/26 06:44:38;;;;;;;1999.90;999.90;;;16.70;99.90;;;;;;5019774;28;20510;-70
2022/05/26 06:47:08;;;;;;;1999.90;999.90;;;16.90;99.90;;;;;;5023381;28;20459;-70
2022/05/26 06:49:35;;;;;;;1999.90;999.90;;;17.10;99.90;;;;;;5016434;28;20828;-70
2022/05/26 06:52:02;;;;;;;1999.90;999.90;;;17.10;99.90;;;;;;5021095;28;20462;-70
2022/05/26 06:54:31;;;;;;;1999.90;999.90;;;16.90;99.90;;;;;;5014978;28;20484;-70
2022/05/26 06:56:58;;;;;;;1999.90;999.90;;;16.80;99.90;;;;;;5012779;28;20467;-69
2022/05/26 06:59:26;;;;;;;1999.90;999.90;;;16.90;99.90;;;;;;5019787;28;20495;-71
2022/05/26 07:01:53;;;;;;;1999.90;999.90;;;17.00;99.90;;;;;;5012781;28;20492;-70
2022/05/26 07:04:20;;;;;;;1999.90;999.90;;;17.00;99.90;;;;;;5017916;28;20456;-70
2022/05/26 07:06:50;;;;;;;1999.90;999.90;;;17.00;99.90;;;;;;5016806;28;20463;-70
2022/05/26 07:09:17;;;;;;;1999.90;999.90;;;16.90;99.90;;;;;;5017359;28;20535;-71
2022/05/26 07:11:43;;;;;;;1999.90;999.90;;;17.10;99.90;;;;;;5014394;28;20479;-71
2022/05/26 07:14:10;;;;;;;1999.90;999.90;;;17.10;99.90;;;;;;5012267;28;20467;-68
2022/05/26 07:16:38;;;;;;;1999.90;999.90;;;17.40;99.90;;;;;;5013584;28;20495;-71
2022/05/26 07:19:05;;;;;;;1999.90;999.90;;;17.80;99.90;;;;;;5007452;28;20522;-70
2022/05/26 07:21:33;;;;;;;1999.90;999.90;;;18.00;99.90;;;;;;5016192;28;20487;-71
2022/05/26 07:24:00;;;;;;;1999.90;999.90;;;17.70;99.90;;;;;;5012199;28;20889;-71
2022/05/26 07:26:28;;;;;;;1999.90;999.90;;;17.80;99.90;;;;;;5008532;28;20460;-70
2022/05/26 07:28:55;;;;;;;1999.90;999.90;;;17.80;99.90;;;;;;5022778;28;20451;-71
2022/05/26 07:31:22;;;;;;;1999.90;999.90;;;17.60;99.90;;;;;;5014527;28;20476;-71
2022/05/26 07:33:50;;;;;;;1999.90;999.90;;;17.90;99.90;;;;;;5007547;28;20506;-71
2022/05/26 07:41:46;;;;;;;1999.90;999.90;;;17.90;99.90;;;;;;5013172;28;20537;-70
2022/05/26 07:44:13;;;;;;;1999.90;999.90;;;18.00;99.90;;;;;;5014357;28;20475;-71
2022/05/26 07:46:40;;;;;;;1999.90;999.90;;;18.30;99.90;;;;;;5008696;28;20520;-71
2022/05/26 07:49:09;;;;;;;1999.90;999.90;;;18.20;99.90;;;;;;5017517;28;20947;-71
2022/05/26 07:51:35;;;;;;;1999.90;999.90;;;18.20;99.90;;;;;;5032159;28;20545;-69
2022/05/26 07:54:02;;;;;;;1999.90;999.90;;;18.10;99.90;;;;;;5023088;28;20510;-70
2022/05/26 07:56:32;;;;;;;1999.90;999.90;;;18.20;99.90;;;;;;5012740;28;21001;-71
2022/05/26 07:58:59;;;;;;;1999.90;999.90;;;18.00;99.90;;;;;;5013940;28;20459;-71
2022/05/26 08:01:26;;;;;;;1999.90;999.90;;;17.90;99.90;;;;;;5010353;28;20483;-71
2022/05/26 08:03:53;;;;;;;1999.90;999.90;;;17.90;99.90;;;;;;5004451;28;20464;-71
2022/05/26 08:06:22;;;;;;;1999.90;999.90;;;18.20;99.90;;;;;;5014222;28;20465;-70
2022/05/26 08:08:49;;;;;;;1999.90;999.90;;;18.60;99.90;;;;;;5011377;28;20555;-71
2022/05/26 08:11:16;;;;;;;1999.90;999.90;;;18.80;99.90;;;;;;5006960;28;21077;-71
2022/05/26 08:13:43;;;;;;;1999.90;999.90;;;19.20;99.90;;;;;;5014134;28;20513;-71
2022/05/26 08:16:10;;;;;;;1999.90;999.90;;;19.20;99.90;;;;;;5008340;28;20538;-71
2022/05/26 08:18:36;;;;;;;1999.90;999.90;;;19.40;99.90;;;;;;5015801;28;20518;-71
2022/05/26 08:21:07;;;;;;;1999.90;999.90;;;19.10;99.90;;;;;;5009766;28;20475;-70
2022/05/26 08:23:35;;;;;;;1999.90;999.90;;;18.90;99.90;;;;;;5031434;28;20836;-70
2022/05/26 08:26:02;;;;;;;1999.90;999.90;;;18.70;99.90;;;;;;5022887;28;20519;-70
2022/05/26 08:28:28;;;;;;;1999.90;999.90;;;18.70;99.90;;;;;;5014018;28;21083;-71
2022/05/26 08:30:55;;;;;;;1999.90;999.90;;;19.10;99.90;;;;;;5014702;28;20483;-71
2022/05/26 08:33:22;;;;;;;1999.90;999.90;;;19.40;99.90;;;;;;5009931;28;20518;-71
2022/05/26 08:35:49;;;;;;;1999.90;999.90;;;19.50;99.90;;;;;;5010103;28;20485;-70
2022/05/26 08:38:15;;;;;;;1999.90;999.90;;;19.90;99.90;;;;;;5005806;28;20467;-71
2022/05/26 08:40:49;;;;;;;1999.90;999.90;;;20.20;99.90;;;;;;5013991;28;20488;-70
2022/05/26 08:43:20;;;;;;;1999.90;999.90;;;20.40;99.90;;;;;;5012896;28;20475;-70
2022/05/26 08:45:50;;;;;;;1999.90;999.90;;;20.70;99.90;;;;;;5019873;28;20460;-71
2022/05/26 08:48:39;;;;;;;1999.90;999.90;;;20.80;99.90;;;;;;5005686;28;20465;-71
2022/05/26 08:51:07;;;;;;;1999.90;999.90;;;20.70;99.90;;;;;;5005336;28;20506;-70
2022/05/26 08:53:37;;;;;;;1999.90;999.90;;;20.90;99.90;;;;;;5016113;28;20465;-70
2022/05/26 08:56:08;;;;;;;1999.90;999.90;;;20.80;99.90;;;;;;5009868;28;20515;-71
2022/05/26 08:58:40;;;;;;;1999.90;999.90;;;20.90;99.80;;;;;;5015736;28;20870;-71
2022/05/26 09:01:11;;;;;;;1999.90;999.90;;;21.10;99.70;;;;;;5011502;28;20540;-70
2022/05/26 09:03:38;;;;;;;1999.90;999.90;;;21.10;99.80;;;;;;5013454;28;20461;-71
2022/05/26 09:06:07;;;;;;;1999.90;999.90;;;21.10;99.90;;;;;;5009742;28;20469;-71
2022/05/26 09:14:23;;;;;;;1999.90;999.90;;;20.80;99.50;;;;;;5008851;28;20467;-71
2022/05/26 09:16:49;;;;;;;1999.90;999.90;;;21.30;99.50;;;;;;5011401;28;20908;-70
2022/05/26 09:19:18;;;;;;;1999.90;999.90;;;22.00;98.50;;;;;;5009844;28;20515;-70
2022/05/26 09:21:47;;;;;;;1999.90;999.90;;;22.10;98.10;;;;;;5011484;28;20483;-71
2022/05/26 09:24:22;;;;;;;1999.90;999.90;;;22.00;98.50;;;;;;5007615;28;20886;-69
2022/05/26 09:26:55;;;;;;;1999.90;999.90;;;21.80;98.50;;;;;;5008632;28;20505;-69
2022/05/26 09:29:26;;;;;;;1999.90;999.90;;;21.30;98.80;;;;;;5009417;28;20972;-71
2022/05/26 09:31:54;;;;;;;1999.90;999.90;;;20.70;99.30;;;;;;5012038;28;20559;-70
2022/05/26 09:34:22;;;;;;;1999.90;999.90;;;20.10;99.90;;;;;;5018397;28;20513;-71
2022/05/26 09:36:52;;;;;;;1999.90;999.90;;;20.10;99.90;;;;;;5012102;28;20483;-71
2022/05/26 09:39:21;;;;;;;1999.90;999.90;;;20.30;99.90;;;;;;5010549;28;20891;-70
2022/05/26 09:41:53;;;;;;;1999.90;999.90;;;21.20;99.90;;;;;;5005093;28;20865;-71
2022/05/26 09:44:31;;;;;;;1999.90;999.90;;;21.20;99.50;;;;;;5010373;28;20944;-71
2022/05/26 09:47:01;;;;;;;1999.90;999.90;;;21.50;99.00;;;;;;5007672;28;20944;-71
2022/05/26 09:49:33;;;;;;;1999.90;999.90;;;21.30;98.50;;;;;;5003441;28;20460;-71
2022/05/26 09:52:17;;;;;;;1999.90;999.90;;;21.30;98.10;;;;;;5003070;28;20860;-71
2022/05/26 09:54:45;;;;;;;1999.90;999.90;;;21.10;98.20;;;;;;5004125;28;20467;-71
2022/05/26 09:57:16;;;;;;;1999.90;999.90;;;21.00;98.20;;;;;;5008708;28;21011;-71
2022/05/26 09:59:45;;;;;;;1999.90;999.90;;;21.40;98.00;;;;;;5005181;28;20514;-71
2022/05/26 10:02:16;;;;;;;1999.90;999.90;;;21.80;97.60;;;;;;5005108;28;20470;-71
2022/05/26 10:04:53;;;;;;;1999.90;999.90;;;21.30;96.70;;;;;;5005776;28;20522;-71
2022/05/26 10:07:25;;;;;;;1999.90;999.90;;;21.20;97.40;;;;;;5008214;28;20456;-72
2022/05/26 10:10:01;;;;;;;1999.90;999.90;;;21.00;98.20;;;;;;5006494;28;20543;-71
2022/05/26 10:12:38;;;;;;;1999.90;999.90;;;21.00;98.10;;;;;;5005109;28;20882;-71
2022/05/26 10:15:24;;;;;;;1999.90;999.90;;;20.90;97.50;;;;;;5010094;28;20455;-70
2022/05/26 10:18:11;;;;;;;1999.90;999.90;;;21.00;97.90;;;;;;5008291;28;20468;-71
2022/05/26 10:20:48;;;;;;;1999.90;999.90;;;21.00;97.50;;;;;;5007116;28;20542;-71
2022/05/26 10:23:35;;;;;;;1999.90;999.90;;;21.20;97.70;;;;;;5008647;28;21029;-70
2022/05/26 10:26:10;;;;;;;1999.90;999.90;;;21.20;97.90;;;;;;5005259;28;20519;-71
2022/05/26 10:29:01;;;;;;;1999.90;999.90;;;21.20;97.70;;;;;;5006147;28;20467;-70
2022/05/26 10:31:38;;;;;;;1999.90;999.90;;;21.30;98.00;;;;;;5009556;28;20486;-68
2022/05/26 10:34:27;;;;;;;1999.90;999.90;;;21.70;97.80;;;;;;5011315;28;20464;-69
2022/05/26 10:37:06;;;;;;;1999.90;999.90;;;21.80;97.70;;;;;;5011725;28;21034;-71
2022/05/26 10:39:47;;;;;;;1999.90;999.90;;;21.70;96.90;;;;;;5008990;28;20467;-70
2022/05/26 10:42:22;;;;;;;1999.90;999.90;;;21.30;96.80;;;;;;5006547;28;20464;-70
2022/05/26 10:45:09;;;;;;;1999.90;999.90;;;20.30;96.60;;;;;;5008263;28;20521;-70
2022/05/26 10:47:42;;;;;;;1999.90;999.90;;;20.40;97.20;;;;;;5011555;28;20492;-70
2022/05/26 10:50:16;;;;;;;1999.90;999.90;;;20.30;98.20;;;;;;5010213;28;20495;-70
2022/05/26 10:52:47;;;;;;;1999.90;999.90;;;20.30;98.50;;;;;;5012901;28;20533;-71
2022/05/26 10:55:18;;;;;;;1999.90;999.90;;;20.30;98.60;;;;;;5010942;28;20468;-70
2022/05/26 10:57:49;;;;;;;1999.90;999.90;;;20.40;98.50;;;;;;5011878;28;20459;-70
2022/05/26 11:00:19;;;;;;;1999.90;999.90;;;19.70;98.80;;;;;;5007520;28;20562;-69
2022/05/26 11:02:52;;;;;;;1999.90;999.90;;;19.80;98.60;;;;;;5011038;28;20494;-69
2022/05/26 11:05:30;;;;;;;1999.90;999.90;;;19.70;99.00;;;;;;5011523;28;20460;-69
2022/05/26 11:08:09;;;;;;;1999.90;999.90;;;20.00;99.00;;;;;;5011466;28;20460;-70
2022/05/26 11:10:44;;;;;;;1999.90;999.90;;;20.30;99.30;;;;;;5012258;28;20507;-70
2022/05/26 11:13:17;;;;;;;1999.90;999.90;;;20.50;98.60;;;;;;5007182;28;20468;-70
2022/05/26 11:18:42;;;;;;;1999.90;999.90;;;20.60;98.30;;;;;;5009680;28;22138;-69
2022/05/26 11:21:13;;;;;;;1999.90;999.90;;;20.50;98.40;;;;;;5006627;28;20480;-70
2022/05/26 11:23:41;;;;;;;1999.90;999.90;;;20.50;97.60;;;;;;5011739;28;20465;-70
2022/05/26 11:26:16;;;;;;;1999.90;999.90;;;20.80;96.60;;;;;;5011915;28;20456;-70
2022/05/26 11:28:48;;;;;;;1999.90;999.90;;;20.90;96.40;;;;;;5009829;28;20533;-71
2022/05/26 11:37:23;;;;;;;1999.90;999.90;;;21.00;97.00;;;;;;4955228;28;20477;-70
2022/05/26 11:39:54;;;;;;;1999.90;999.90;;;21.20;96.70;;;;;;5009404;28;20504;-70
2022/05/26 11:42:30;;;;;;;1999.90;999.90;;;21.10;96.00;;;;;;5009938;28;20482;-70
2022/05/26 11:45:10;;;;;;;1999.90;999.90;;;21.20;96.40;;;;;;5010174;28;20493;-70
2022/05/26 11:47:51;;;;;;;1999.90;999.90;;;21.30;96.30;;;;;;5008362;28;20468;-71
2022/05/26 11:50:43;;;;;;;1999.90;999.90;;;21.70;96.20;;;;;;5007368;28;20483;-70
2022/05/26 11:53:34;;;;;;;1999.90;999.90;;;22.10;96.10;;;;;;5016744;28;20436;-69
2022/05/26 11:56:04;;;;;;;1999.90;999.90;;;22.20;95.80;;;;;;5012274;28;20484;-70
2022/05/26 11:58:37;;;;;;;1999.90;999.90;;;21.40;95.50;;;;;;5009670;28;20460;-70
2022/05/26 12:03:33;;;;;;;1999.90;999.90;;;21.50;96.30;;;;;;5043421;28;20470;-70
2022/05/26 12:06:12;;;;;;;1999.90;999.90;;;21.60;96.00;;;;;;5046691;28;20454;-69
2022/05/26 12:08:45;;;;;;;1999.90;999.90;;;21.50;96.30;;;;;;5046764;28;20466;-69
2022/05/26 12:11:13;;;;;;;1999.90;999.90;;;21.50;96.10;;;;;;5046178;28;20518;-70
2022/05/26 12:13:42;;;;;;;1999.90;999.90;;;21.30;96.30;;;;;;5045490;28;21457;-71
2022/05/26 12:16:27;;;;;;;1999.90;999.90;;;21.30;97.10;;;;;;5047403;28;20482;-70
2022/05/26 12:18:59;;;;;;;1999.90;999.90;;;21.10;97.00;;;;;;5047235;28;20852;-71
2022/05/26 12:21:42;;;;;;;1999.90;999.90;;;20.70;96.80;;;;;;5045732;28;20547;-71
2022/05/26 12:24:55;;;;;;;1999.90;999.90;;;20.20;98.00;;;;;;5046972;28;20457;-70
2022/05/26 12:28:04;;;;;;;1999.90;999.90;;;20.40;98.60;;;;;;5045427;28;20459;-71
2022/05/26 12:30:36;;;;;;;1999.90;999.90;;;20.50;96.60;;;;;;5045975;28;20512;-71
2022/05/26 12:33:37;;;;;;;1999.90;999.90;;;20.70;95.90;;;;;;5045507;28;20611;-70
2022/05/26 12:36:14;;;;;;;1999.90;999.90;;;21.00;95.50;;;;;;5045977;28;20482;-70
2022/05/26 12:38:59;;;;;;;1999.90;999.90;;;21.20;96.20;;;;;;5045094;28;20496;-70
2022/05/26 12:41:39;;;;;;;1999.90;999.90;;;21.30;95.90;;;;;;5045538;28;20492;-70
2022/05/26 12:44:49;;;;;;;1999.90;999.90;;;21.60;96.10;;;;;;5049496;28;20454;-70
2022/05/26 12:47:40;;;;;;;1999.90;999.90;;;21.50;95.70;;;;;;5001696;28;20453;-70
2022/05/26 12:50:09;;;;;;;1999.90;999.90;;;21.20;95.60;;;;;;5041187;28;20466;-70
2022/05/26 12:52:39;;;;;;;1999.90;999.90;;;21.10;96.30;;;;;;5048550;28;20901;-71
2022/05/26 12:55:18;;;;;;;1999.90;999.90;;;20.80;97.00;;;;;;5044051;28;20488;-70